sensor_id;sensor_type;location;lat;lon;timestamp;temperature;humidity
26164;DHT22;13914;48.178;11.716;2023-07-22T00:00:29;17.80;6.90
26164;DHT22;13914;48.178;11.716;2023-07-22T00:02:55;17.80;7.20
26164;DHT22;13914;48.178;11.716;2023-07-22T00:05:21;17.70;7.10
26164;DHT22;13914;48.178;11.716;2023-07-22T00:07:51;17.70;7.20
26164;DHT22;13914;48.178;11.716;2023-07-22T00:10:18;17.70;7.40
26164;DHT22;13914;48.178;11.716;2023-07-22T00:12:43;17.70;7.20
26164;DHT22;13914;48.178;11.716;2023-07-22T00:15:12;17.60;7.40
26164;DHT22;13914;48.178;11.716;2023-07-22T00:17:38;17.60;7.40
26164;DHT22;13914;48.178;11.716;2023-07-22T00:20:05;17.60;7.20
26164;DHT22;13914;48.178;11.716;2023-07-22T00:22:32;17.50;7.20
26164;DHT22;13914;48.178;11.716;2023-07-22T00:24:57;17.50;7.20
26164;DHT22;13914;48.178;11.716;2023-07-22T00:27:25;17.50;6.80
26164;DHT22;13914;48.178;11.716;2023-07-22T00:29:51;17.50;6.80
26164;DHT22;13914;48.178;11.716;2023-07-22T00:32:17;17.40;6.80
26164;DHT22;13914;48.178;11.716;2023-07-22T00:34:42;17.40;6.80
26164;DHT22;13914;48.178;11.716;2023-07-22T00:37:08;17.40;7.00
26164;DHT22;13914;48.178;11.716;2023-07-22T00:39:34;17.30;6.80
26164;DHT22;13914;48.178;11.716;2023-07-22T00:41:59;17.40;6.90
26164;DHT22;13914;48.178;11.716;2023-07-22T00:44:25;17.30;6.90
26164;DHT22;13914;48.178;11.716;2023-07-22T00:46:53;17.30;7.60
26164;DHT22;13914;48.178;11.716;2023-07-22T00:49:20;17.30;7.00
26164;DHT22;13914;48.178;11.716;2023-07-22T00:51:46;17.20;6.90
26164;DHT22;13914;48.178;11.716;2023-07-22T00:54:12;17.20;7.00
26164;DHT22;13914;48.178;11.716;2023-07-22T00:56:38;17.20;6.90
26164;DHT22;13914;48.178;11.716;2023-07-22T00:59:05;17.10;6.90
26164;DHT22;13914;48.178;11.716;2023-07-22T01:01:31;17.10;7.00
26164;DHT22;13914;48.178;11.716;2023-07-22T01:03:57;17.10;7.10
26164;DHT22;13914;48.178;11.716;2023-07-22T01:06:23;17.10;7.00
26164;DHT22;13914;48.178;11.716;2023-07-22T01:08:50;17.00;7.10
26164;DHT22;13914;48.178;11.716;2023-07-22T01:11:16;17.00;7.10
26164;DHT22;13914;48.178;11.716;2023-07-22T01:13:42;17.00;7.10
26164;DHT22;13914;48.178;11.716;2023-07-22T01:16:08;17.00;7.10
26164;DHT22;13914;48.178;11.716;2023-07-22T01:18:34;16.90;7.00
26164;DHT22;13914;48.178;11.716;2023-07-22T01:21:00;16.90;7.20
26164;DHT22;13914;48.178;11.716;2023-07-22T01:23:26;16.90;7.10
26164;DHT22;13914;48.178;11.716;2023-07-22T01:25:52;16.90;7.40
26164;DHT22;13914;48.178;11.716;2023-07-22T01:28:18;16.90;7.30
26164;DHT22;13914;48.178;11.716;2023-07-22T01:30:46;16.80;7.50
26164;DHT22;13914;48.178;11.716;2023-07-22T01:33:11;16.80;7.30
26164;DHT22;13914;48.178;11.716;2023-07-22T01:35:37;16.70;7.20
26164;DHT22;13914;48.178;11.716;2023-07-22T01:38:03;16.80;7.50
26164;DHT22;13914;48.178;11.716;2023-07-22T01:40:29;16.80;7.40
26164;DHT22;13914;48.178;11.716;2023-07-22T01:42:54;16.70;7.40
26164;DHT22;13914;48.178;11.716;2023-07-22T01:45:20;16.70;7.50
26164;DHT22;13914;48.178;11.716;2023-07-22T01:47:46;16.70;7.50
26164;DHT22;13914;48.178;11.716;2023-07-22T01:50:11;16.70;7.50
26164;DHT22;13914;48.178;11.716;2023-07-22T01:52:38;16.60;7.40
26164;DHT22;13914;48.178;11.716;2023-07-22T01:55:04;16.60;7.40
26164;DHT22;13914;48.178;11.716;2023-07-22T01:57:34;16.60;7.50
26164;DHT22;13914;48.178;11.716;2023-07-22T01:59:59;16.50;7.40
26164;DHT22;13914;48.178;11.716;2023-07-22T02:02:25;16.50;7.50
26164;DHT22;13914;48.178;11.716;2023-07-22T02:04:51;16.50;7.50
26164;DHT22;13914;48.178;11.716;2023-07-22T02:07:17;16.50;7.70
26164;DHT22;13914;48.178;11.716;2023-07-22T02:09:43;16.50;7.50
26164;DHT22;13914;48.178;11.716;2023-07-22T02:12:09;16.50;7.70
26164;DHT22;13914;48.178;11.716;2023-07-22T02:14:36;16.40;7.70
26164;DHT22;13914;48.178;11.716;2023-07-22T02:17:02;16.50;7.50
26164;DHT22;13914;48.178;11.716;2023-07-22T02:19:28;16.40;7.60
26164;DHT22;13914;48.178;11.716;2023-07-22T02:21:54;16.40;7.80
26164;DHT22;13914;48.178;11.716;2023-07-22T02:24:19;16.30;7.60
26164;DHT22;13914;48.178;11.716;2023-07-22T02:26:45;16.30;7.80
26164;DHT22;13914;48.178;11.716;2023-07-22T02:29:11;16.30;7.60
26164;DHT22;13914;48.178;11.716;2023-07-22T02:31:37;16.30;7.60
26164;DHT22;13914;48.178;11.716;2023-07-22T02:34:03;16.30;7.70
26164;DHT22;13914;48.178;11.716;2023-07-22T02:36:28;16.30;7.70
26164;DHT22;13914;48.178;11.716;2023-07-22T02:38:54;16.30;7.70
26164;DHT22;13914;48.178;11.716;2023-07-22T02:41:20;16.20;7.70
26164;DHT22;13914;48.178;11.716;2023-07-22T02:43:47;16.30;7.60
26164;DHT22;13914;48.178;11.716;2023-07-22T02:46:12;16.20;7.70
26164;DHT22;13914;48.178;11.716;2023-07-22T02:48:38;16.20;7.70
26164;DHT22;13914;48.178;11.716;2023-07-22T02:51:05;16.10;7.60
26164;DHT22;13914;48.178;11.716;2023-07-22T02:53:32;16.20;7.90
26164;DHT22;13914;48.178;11.716;2023-07-22T02:55:58;16.20;7.80
26164;DHT22;13914;48.178;11.716;2023-07-22T02:58:24;16.20;7.80
26164;DHT22;13914;48.178;11.716;2023-07-22T03:00:50;16.20;7.80
26164;DHT22;13914;48.178;11.716;2023-07-22T03:03:16;16.10;7.90
26164;DHT22;13914;48.178;11.716;2023-07-22T03:05:41;16.10;7.80
26164;DHT22;13914;48.178;11.716;2023-07-22T03:08:07;16.10;7.90
26164;DHT22;13914;48.178;11.716;2023-07-22T03:10:32;16.10;7.90
26164;DHT22;13914;48.178;11.716;2023-07-22T03:12:58;16.10;7.90
26164;DHT22;13914;48.178;11.716;2023-07-22T03:15:25;16.00;7.80
26164;DHT22;13914;48.178;11.716;2023-07-22T03:17:54;16.10;7.80
26164;DHT22;13914;48.178;11.716;2023-07-22T03:20:21;16.00;7.70
26164;DHT22;13914;48.178;11.716;2023-07-22T03:22:56;16.00;7.80
26164;DHT22;13914;48.178;11.716;2023-07-22T03:25:22;16.00;7.80
26164;DHT22;13914;48.178;11.716;2023-07-22T03:27:48;16.00;7.80
26164;DHT22;13914;48.178;11.716;2023-07-22T03:30:14;16.00;7.90
26164;DHT22;13914;48.178;11.716;2023-07-22T03:32:41;15.90;7.80
26164;DHT22;13914;48.178;11.716;2023-07-22T03:35:08;16.00;7.80
26164;DHT22;13914;48.178;11.716;2023-07-22T03:37:37;15.90;7.90
26164;DHT22;13914;48.178;11.716;2023-07-22T03:40:03;15.90;7.90
26164;DHT22;13914;48.178;11.716;2023-07-22T03:42:46;15.90;7.90
26164;DHT22;13914;48.178;11.716;2023-07-22T03:45:12;15.90;8.00
26164;DHT22;13914;48.178;11.716;2023-07-22T03:47:38;15.90;7.90
26164;DHT22;13914;48.178;11.716;2023-07-22T03:50:05;15.80;7.80
26164;DHT22;13914;48.178;11.716;2023-07-22T03:52:31;15.80;7.90
26164;DHT22;13914;48.178;11.716;2023-07-22T03:54:56;15.90;7.90
26164;DHT22;13914;48.178;11.716;2023-07-22T03:57:28;15.90;8.00
26164;DHT22;13914;48.178;11.716;2023-07-22T03:59:54;15.80;8.00
26164;DHT22;13914;48.178;11.716;2023-07-22T04:02:20;15.80;7.90
26164;DHT22;13914;48.178;11.716;2023-07-22T04:04:46;15.80;7.90
26164;DHT22;13914;48.178;11.716;2023-07-22T04:07:11;15.80;7.90
26164;DHT22;13914;48.178;11.716;2023-07-22T04:09:37;15.80;8.00
26164;DHT22;13914;48.178;11.716;2023-07-22T04:12:03;15.80;7.80
26164;DHT22;13914;48.178;11.716;2023-07-22T04:14:28;15.80;7.90
26164;DHT22;13914;48.178;11.716;2023-07-22T04:16:54;15.80;8.10
26164;DHT22;13914;48.178;11.716;2023-07-22T04:19:20;15.70;8.00
26164;DHT22;13914;48.178;11.716;2023-07-22T04:21:45;15.70;8.00
26164;DHT22;13914;48.178;11.716;2023-07-22T04:24:11;15.70;8.10
26164;DHT22;13914;48.178;11.716;2023-07-22T04:26:37;15.70;8.00
26164;DHT22;13914;48.178;11.716;2023-07-22T04:29:03;15.70;8.00
26164;DHT22;13914;48.178;11.716;2023-07-22T04:31:28;15.70;8.10
26164;DHT22;13914;48.178;11.716;2023-07-22T04:33:54;15.70;7.90
26164;DHT22;13914;48.178;11.716;2023-07-22T04:36:20;15.70;7.90
26164;DHT22;13914;48.178;11.716;2023-07-22T04:38:45;15.70;8.00
26164;DHT22;13914;48.178;11.716;2023-07-22T04:41:11;15.60;8.00
26164;DHT22;13914;48.178;11.716;2023-07-22T04:43:36;15.70;8.00
26164;DHT22;13914;48.178;11.716;2023-07-22T04:46:02;15.70;8.00
26164;DHT22;13914;48.178;11.716;2023-07-22T04:48:29;15.70;7.90
26164;DHT22;13914;48.178;11.716;2023-07-22T04:50:56;15.70;8.00
26164;DHT22;13914;48.178;11.716;2023-07-22T04:53:22;15.70;8.00
26164;DHT22;13914;48.178;11.716;2023-07-22T04:55:48;15.70;8.00
26164;DHT22;13914;48.178;11.716;2023-07-22T04:58:13;15.70;7.90
26164;DHT22;13914;48.178;11.716;2023-07-22T05:00:39;15.70;7.80
26164;DHT22;13914;48.178;11.716;2023-07-22T05:03:05;15.70;7.90
26164;DHT22;13914;48.178;11.716;2023-07-22T05:05:31;15.70;8.00
26164;DHT22;13914;48.178;11.716;2023-07-22T05:07:57;15.70;7.80
26164;DHT22;13914;48.178;11.716;2023-07-22T05:10:23;15.70;7.80
26164;DHT22;13914;48.178;11.716;2023-07-22T05:12:48;15.80;7.90
26164;DHT22;13914;48.178;11.716;2023-07-22T05:15:14;15.80;8.00
26164;DHT22;13914;48.178;11.716;2023-07-22T05:17:40;15.70;8.00
26164;DHT22;13914;48.178;11.716;2023-07-22T05:20:06;15.80;8.10
26164;DHT22;13914;48.178;11.716;2023-07-22T05:22:35;15.80;8.20
26164;DHT22;13914;48.178;11.716;2023-07-22T05:25:04;15.90;8.40
26164;DHT22;13914;48.178;11.716;2023-07-22T05:27:30;15.90;8.20
26164;DHT22;13914;48.178;11.716;2023-07-22T05:29:56;15.80;8.20
26164;DHT22;13914;48.178;11.716;2023-07-22T05:32:22;15.90;8.20
26164;DHT22;13914;48.178;11.716;2023-07-22T05:34:47;16.00;8.50
26164;DHT22;13914;48.178;11.716;2023-07-22T05:37:13;16.00;8.40
26164;DHT22;13914;48.178;11.716;2023-07-22T05:39:39;16.00;8.30
26164;DHT22;13914;48.178;11.716;2023-07-22T05:42:04;16.00;8.20
26164;DHT22;13914;48.178;11.716;2023-07-22T05:44:30;16.10;8.50
26164;DHT22;13914;48.178;11.716;2023-07-22T05:46:56;16.10;8.30
26164;DHT22;13914;48.178;11.716;2023-07-22T05:49:22;16.10;8.60
26164;DHT22;13914;48.178;11.716;2023-07-22T05:51:47;16.10;8.40
26164;DHT22;13914;48.178;11.716;2023-07-22T05:54:13;16.10;8.10
26164;DHT22;13914;48.178;11.716;2023-07-22T05:56:39;16.20;8.20
26164;DHT22;13914;48.178;11.716;2023-07-22T05:59:05;16.20;8.20
26164;DHT22;13914;48.178;11.716;2023-07-22T06:01:31;16.20;8.00
26164;DHT22;13914;48.178;11.716;2023-07-22T06:03:56;16.20;8.00
26164;DHT22;13914;48.178;11.716;2023-07-22T06:06:22;16.30;8.00
26164;DHT22;13914;48.178;11.716;2023-07-22T06:08:47;16.40;8.10
26164;DHT22;13914;48.178;11.716;2023-07-22T06:11:13;16.30;7.80
26164;DHT22;13914;48.178;11.716;2023-07-22T06:13:39;16.40;7.90
26164;DHT22;13914;48.178;11.716;2023-07-22T06:16:04;16.40;7.90
26164;DHT22;13914;48.178;11.716;2023-07-22T06:18:30;16.50;7.80
26164;DHT22;13914;48.178;11.716;2023-07-22T06:20:56;16.50;7.80
26164;DHT22;13914;48.178;11.716;2023-07-22T06:23:22;16.60;7.80
26164;DHT22;13914;48.178;11.716;2023-07-22T06:25:47;16.60;8.10
26164;DHT22;13914;48.178;11.716;2023-07-22T06:28:13;16.60;7.80
26164;DHT22;13914;48.178;11.716;2023-07-22T06:30:38;16.70;7.90
26164;DHT22;13914;48.178;11.716;2023-07-22T06:33:04;16.70;7.80
26164;DHT22;13914;48.178;11.716;2023-07-22T06:35:30;16.70;7.70
26164;DHT22;13914;48.178;11.716;2023-07-22T06:37:55;16.80;7.70
26164;DHT22;13914;48.178;11.716;2023-07-22T06:40:21;16.90;7.80
26164;DHT22;13914;48.178;11.716;2023-07-22T06:42:47;16.80;7.70
26164;DHT22;13914;48.178;11.716;2023-07-22T06:45:12;17.00;7.70
26164;DHT22;13914;48.178;11.716;2023-07-22T06:47:38;17.00;8.00
26164;DHT22;13914;48.178;11.716;2023-07-22T06:50:04;17.10;7.80
26164;DHT22;13914;48.178;11.716;2023-07-22T06:52:30;17.10;7.80
26164;DHT22;13914;48.178;11.716;2023-07-22T06:54:56;17.10;7.80
26164;DHT22;13914;48.178;11.716;2023-07-22T06:57:22;17.10;7.70
26164;DHT22;13914;48.178;11.716;2023-07-22T06:59:48;17.30;7.80
26164;DHT22;13914;48.178;11.716;2023-07-22T07:02:16;17.30;7.90
26164;DHT22;13914;48.178;11.716;2023-07-22T07:04:41;17.40;8.00
26164;DHT22;13914;48.178;11.716;2023-07-22T07:07:07;17.40;8.10
26164;DHT22;13914;48.178;11.716;2023-07-22T07:09:34;17.50;7.90
26164;DHT22;13914;48.178;11.716;2023-07-22T07:12:00;17.50;7.90
26164;DHT22;13914;48.178;11.716;2023-07-22T07:14:26;17.60;7.90
26164;DHT22;13914;48.178;11.716;2023-07-22T07:16:51;17.70;7.80
26164;DHT22;13914;48.178;11.716;2023-07-22T07:19:17;17.70;7.90
26164;DHT22;13914;48.178;11.716;2023-07-22T07:21:43;17.70;8.10
26164;DHT22;13914;48.178;11.716;2023-07-22T07:24:08;17.80;8.10
26164;DHT22;13914;48.178;11.716;2023-07-22T07:26:34;17.90;8.10
26164;DHT22;13914;48.178;11.716;2023-07-22T07:29:00;18.10;8.30
26164;DHT22;13914;48.178;11.716;2023-07-22T07:31:25;18.20;8.80
26164;DHT22;13914;48.178;11.716;2023-07-22T07:33:51;18.30;8.50
26164;DHT22;13914;48.178;11.716;2023-07-22T07:36:17;18.40;8.70
26164;DHT22;13914;48.178;11.716;2023-07-22T07:38:43;18.40;8.50
26164;DHT22;13914;48.178;11.716;2023-07-22T07:41:09;18.50;8.70
26164;DHT22;13914;48.178;11.716;2023-07-22T07:43:37;18.70;8.50
26164;DHT22;13914;48.178;11.716;2023-07-22T07:48:52;18.90;8.40
26164;DHT22;13914;48.178;11.716;2023-07-22T07:51:19;19.00;8.50
26164;DHT22;13914;48.178;11.716;2023-07-22T07:53:46;19.10;8.60
26164;DHT22;13914;48.178;11.716;2023-07-22T07:56:15;19.20;8.20
26164;DHT22;13914;48.178;11.716;2023-07-22T07:58:42;19.30;8.30
26164;DHT22;13914;48.178;11.716;2023-07-22T08:01:08;19.50;8.00
26164;DHT22;13914;48.178;11.716;2023-07-22T08:03:34;19.60;8.60
26164;DHT22;13914;48.178;11.716;2023-07-22T08:06:00;19.70;8.30
26164;DHT22;13914;48.178;11.716;2023-07-22T08:08:27;19.80;8.00
26164;DHT22;13914;48.178;11.716;2023-07-22T08:11:00;20.00;7.90
26164;DHT22;13914;48.178;11.716;2023-07-22T08:13:31;20.10;7.90
26164;DHT22;13914;48.178;11.716;2023-07-22T08:15:59;20.20;7.80
26164;DHT22;13914;48.178;11.716;2023-07-22T08:18:25;20.30;7.40
26164;DHT22;13914;48.178;11.716;2023-07-22T08:20:51;20.50;7.40
26164;DHT22;13914;48.178;11.716;2023-07-22T08:23:18;20.60;7.40
26164;DHT22;13914;48.178;11.716;2023-07-22T08:25:44;20.70;7.20
26164;DHT22;13914;48.178;11.716;2023-07-22T08:28:10;20.80;6.90
26164;DHT22;13914;48.178;11.716;2023-07-22T08:30:35;20.90;7.10
26164;DHT22;13914;48.178;11.716;2023-07-22T08:33:01;21.00;6.40
26164;DHT22;13914;48.178;11.716;2023-07-22T08:35:27;21.10;6.10
26164;DHT22;13914;48.178;11.716;2023-07-22T08:37:53;21.30;6.20
26164;DHT22;13914;48.178;11.716;2023-07-22T08:40:19;21.40;5.60
26164;DHT22;13914;48.178;11.716;2023-07-22T08:42:45;21.50;5.70
26164;DHT22;13914;48.178;11.716;2023-07-22T08:45:11;21.60;5.70
26164;DHT22;13914;48.178;11.716;2023-07-22T08:47:38;21.80;5.70
26164;DHT22;13914;48.178;11.716;2023-07-22T08:50:07;21.90;5.80
26164;DHT22;13914;48.178;11.716;2023-07-22T08:52:33;22.00;5.80
26164;DHT22;13914;48.178;11.716;2023-07-22T08:54:59;22.10;5.70
26164;DHT22;13914;48.178;11.716;2023-07-22T08:57:27;22.20;5.70
26164;DHT22;13914;48.178;11.716;2023-07-22T08:59:56;22.40;4.90
26164;DHT22;13914;48.178;11.716;2023-07-22T09:02:24;22.50;5.00
26164;DHT22;13914;48.178;11.716;2023-07-22T09:04:50;22.60;5.00
26164;DHT22;13914;48.178;11.716;2023-07-22T09:07:16;22.70;4.80
26164;DHT22;13914;48.178;11.716;2023-07-22T09:09:44;22.90;4.90
26164;DHT22;13914;48.178;11.716;2023-07-22T09:12:11;23.00;4.70
26164;DHT22;13914;48.178;11.716;2023-07-22T09:14:37;23.10;4.20
26164;DHT22;13914;48.178;11.716;2023-07-22T09:17:04;23.30;4.40
26164;DHT22;13914;48.178;11.716;2023-07-22T09:19:31;23.40;4.10
26164;DHT22;13914;48.178;11.716;2023-07-22T09:21:57;23.50;4.00
26164;DHT22;13914;48.178;11.716;2023-07-22T09:24:24;23.60;3.70
26164;DHT22;13914;48.178;11.716;2023-07-22T09:26:51;23.70;2.20
26164;DHT22;13914;48.178;11.716;2023-07-22T09:29:17;23.90;2.40
26164;DHT22;13914;48.178;11.716;2023-07-22T09:31:50;23.90;2.10
26164;DHT22;13914;48.178;11.716;2023-07-22T09:34:17;24.10;2.40
26164;DHT22;13914;48.178;11.716;2023-07-22T09:36:56;24.10;2.20
26164;DHT22;13914;48.178;11.716;2023-07-22T09:39:22;24.30;2.30
26164;DHT22;13914;48.178;11.716;2023-07-22T09:41:49;24.30;1.00
26164;DHT22;13914;48.178;11.716;2023-07-22T09:44:15;24.50;1.00
26164;DHT22;13914;48.178;11.716;2023-07-22T09:46:41;24.60;1.00
26164;DHT22;13914;48.178;11.716;2023-07-22T09:49:10;24.70;1.30
26164;DHT22;13914;48.178;11.716;2023-07-22T09:51:38;24.80;1.80
26164;DHT22;13914;48.178;11.716;2023-07-22T09:54:05;24.90;1.00
26164;DHT22;13914;48.178;11.716;2023-07-22T09:56:31;25.10;1.60
26164;DHT22;13914;48.178;11.716;2023-07-22T09:59:04;25.20;1.50
26164;DHT22;13914;48.178;11.716;2023-07-22T10:01:31;25.30;1.30
26164;DHT22;13914;48.178;11.716;2023-07-22T10:03:57;25.40;1.00
26164;DHT22;13914;48.178;11.716;2023-07-22T10:06:26;25.50;1.00
26164;DHT22;13914;48.178;11.716;2023-07-22T10:08:55;25.60;1.00
26164;DHT22;13914;48.178;11.716;2023-07-22T10:11:21;25.70;1.00
26164;DHT22;13914;48.178;11.716;2023-07-22T10:13:48;25.80;1.00
26164;DHT22;13914;48.178;11.716;2023-07-22T10:16:13;25.90;1.00
26164;DHT22;13914;48.178;11.716;2023-07-22T10:18:40;25.90;1.00
26164;DHT22;13914;48.178;11.716;2023-07-22T10:21:08;26.00;1.00
26164;DHT22;13914;48.178;11.716;2023-07-22T10:23:34;26.10;1.00
26164;DHT22;13914;48.178;11.716;2023-07-22T10:26:00;26.10;1.00
26164;DHT22;13914;48.178;11.716;2023-07-22T10:28:26;26.20;1.00
26164;DHT22;13914;48.178;11.716;2023-07-22T10:30:53;26.30;1.00
26164;DHT22;13914;48.178;11.716;2023-07-22T10:33:19;26.30;1.00
26164;DHT22;13914;48.178;11.716;2023-07-22T10:36:01;26.40;1.00
26164;DHT22;13914;48.178;11.716;2023-07-22T10:38:34;26.50;1.00
26164;DHT22;13914;48.178;11.716;2023-07-22T10:41:00;26.50;1.00
26164;DHT22;13914;48.178;11.716;2023-07-22T10:43:27;26.60;1.00
26164;DHT22;13914;48.178;11.716;2023-07-22T10:45:56;26.60;1.00
26164;DHT22;13914;48.178;11.716;2023-07-22T10:48:25;26.70;1.00
26164;DHT22;13914;48.178;11.716;2023-07-22T10:50:54;26.80;1.00
26164;DHT22;13914;48.178;11.716;2023-07-22T11:01:53;27.00;1.00
26164;DHT22;13914;48.178;11.716;2023-07-22T11:06:40;27.10;1.00
26164;DHT22;13914;48.178;11.716;2023-07-22T11:12:04;27.20;1.00
26164;DHT22;13914;48.178;11.716;2023-07-22T11:14:46;27.30;1.00
26164;DHT22;13914;48.178;11.716;2023-07-22T11:17:12;27.30;1.00
26164;DHT22;13914;48.178;11.716;2023-07-22T11:19:38;27.40;1.00
26164;DHT22;13914;48.178;11.716;2023-07-22T11:22:04;27.50;1.00
26164;DHT22;13914;48.178;11.716;2023-07-22T11:24:32;27.50;1.00
26164;DHT22;13914;48.178;11.716;2023-07-22T11:27:04;27.60;1.00
26164;DHT22;13914;48.178;11.716;2023-07-22T11:29:30;27.70;1.00
26164;DHT22;13914;48.178;11.716;2023-07-22T11:31:56;27.70;1.00
26164;DHT22;13914;48.178;11.716;2023-07-22T11:34:23;27.80;1.00
26164;DHT22;13914;48.178;11.716;2023-07-22T11:36:50;27.90;1.00
26164;DHT22;13914;48.178;11.716;2023-07-22T11:39:18;27.90;1.00
26164;DHT22;13914;48.178;11.716;2023-07-22T11:41:45;28.00;1.00
26164;DHT22;13914;48.178;11.716;2023-07-22T11:44:13;28.10;1.00
26164;DHT22;13914;48.178;11.716;2023-07-22T11:46:52;28.10;1.00
26164;DHT22;13914;48.178;11.716;2023-07-22T11:49:29;28.20;1.00
26164;DHT22;13914;48.178;11.716;2023-07-22T11:52:02;28.20;1.00
26164;DHT22;13914;48.178;11.716;2023-07-22T11:54:30;28.20;1.00
26164;DHT22;13914;48.178;11.716;2023-07-22T11:56:57;28.30;1.00
26164;DHT22;13914;48.178;11.716;2023-07-22T11:59:32;28.40;1.00
26164;DHT22;13914;48.178;11.716;2023-07-22T12:02:00;28.40;1.00
26164;DHT22;13914;48.178;11.716;2023-07-22T12:04:26;28.30;1.00
26164;DHT22;13914;48.178;11.716;2023-07-22T12:06:52;28.40;1.00
26164;DHT22;13914;48.178;11.716;2023-07-22T12:09:18;28.40;1.00
26164;DHT22;13914;48.178;11.716;2023-07-22T12:11:44;28.40;1.00
26164;DHT22;13914;48.178;11.716;2023-07-22T12:14:13;28.40;1.00
26164;DHT22;13914;48.178;11.716;2023-07-22T12:16:42;28.30;1.00
26164;DHT22;13914;48.178;11.716;2023-07-22T12:19:08;28.40;1.00
26164;DHT22;13914;48.178;11.716;2023-07-22T12:21:34;28.40;1.00
26164;DHT22;13914;48.178;11.716;2023-07-22T12:24:01;28.40;1.00
26164;DHT22;13914;48.178;11.716;2023-07-22T12:26:27;28.40;1.00
26164;DHT22;13914;48.178;11.716;2023-07-22T12:28:52;28.40;1.00
26164;DHT22;13914;48.178;11.716;2023-07-22T12:31:18;28.40;1.00
26164;DHT22;13914;48.178;11.716;2023-07-22T12:33:44;28.40;1.00
26164;DHT22;13914;48.178;11.716;2023-07-22T12:36:10;28.30;1.00
26164;DHT22;13914;48.178;11.716;2023-07-22T12:38:36;28.30;1.00
26164;DHT22;13914;48.178;11.716;2023-07-22T12:41:02;28.30;1.00
26164;DHT22;13914;48.178;11.716;2023-07-22T12:43:27;28.30;1.00
26164;DHT22;13914;48.178;11.716;2023-07-22T12:45:53;28.20;1.00
26164;DHT22;13914;48.178;11.716;2023-07-22T12:48:19;28.20;1.00
26164;DHT22;13914;48.178;11.716;2023-07-22T12:50:45;28.20;1.00
26164;DHT22;13914;48.178;11.716;2023-07-22T12:53:13;28.20;1.00
26164;DHT22;13914;48.178;11.716;2023-07-22T12:55:38;28.20;1.00
26164;DHT22;13914;48.178;11.716;2023-07-22T12:58:05;28.30;1.00
26164;DHT22;13914;48.178;11.716;2023-07-22T13:00:30;28.20;1.00
26164;DHT22;13914;48.178;11.716;2023-07-22T13:02:56;28.20;1.00
26164;DHT22;13914;48.178;11.716;2023-07-22T13:05:22;28.10;1.00
26164;DHT22;13914;48.178;11.716;2023-07-22T13:07:48;28.10;1.00
26164;DHT22;13914;48.178;11.716;2023-07-22T13:10:15;28.10;1.00
26164;DHT22;13914;48.178;11.716;2023-07-22T13:12:43;28.10;1.00
26164;DHT22;13914;48.178;11.716;2023-07-22T13:15:09;28.10;1.00
26164;DHT22;13914;48.178;11.716;2023-07-22T13:17:35;28.10;1.00
26164;DHT22;13914;48.178;11.716;2023-07-22T13:20:01;28.10;1.00
26164;DHT22;13914;48.178;11.716;2023-07-22T13:22:26;28.10;1.00
26164;DHT22;13914;48.178;11.716;2023-07-22T13:24:52;28.10;1.00
26164;DHT22;13914;48.178;11.716;2023-07-22T13:27:18;28.10;1.00
26164;DHT22;13914;48.178;11.716;2023-07-22T13:29:44;28.10;1.00
26164;DHT22;13914;48.178;11.716;2023-07-22T13:32:10;28.10;1.00
26164;DHT22;13914;48.178;11.716;2023-07-22T13:34:36;28.10;1.00
26164;DHT22;13914;48.178;11.716;2023-07-22T13:37:02;28.00;1.00
26164;DHT22;13914;48.178;11.716;2023-07-22T13:39:28;28.00;1.00
26164;DHT22;13914;48.178;11.716;2023-07-22T13:41:54;28.00;1.00
26164;DHT22;13914;48.178;11.716;2023-07-22T13:44:20;28.00;1.00
26164;DHT22;13914;48.178;11.716;2023-07-22T13:46:45;27.90;1.00
26164;DHT22;13914;48.178;11.716;2023-07-22T13:49:11;27.90;1.00
26164;DHT22;13914;48.178;11.716;2023-07-22T13:51:37;27.90;1.00
26164;DHT22;13914;48.178;11.716;2023-07-22T13:54:02;27.90;1.00
26164;DHT22;13914;48.178;11.716;2023-07-22T13:56:28;27.90;1.00
26164;DHT22;13914;48.178;11.716;2023-07-22T13:58:54;27.80;1.00
26164;DHT22;13914;48.178;11.716;2023-07-22T14:01:20;27.80;1.00
26164;DHT22;13914;48.178;11.716;2023-07-22T14:03:46;27.80;1.00
26164;DHT22;13914;48.178;11.716;2023-07-22T14:06:12;27.80;1.00
26164;DHT22;13914;48.178;11.716;2023-07-22T14:08:37;27.80;1.00
26164;DHT22;13914;48.178;11.716;2023-07-22T14:11:04;27.70;1.00
26164;DHT22;13914;48.178;11.716;2023-07-22T14:13:30;27.70;1.00
26164;DHT22;13914;48.178;11.716;2023-07-22T14:15:56;27.70;1.00
26164;DHT22;13914;48.178;11.716;2023-07-22T14:18:21;27.70;1.00
26164;DHT22;13914;48.178;11.716;2023-07-22T14:20:47;27.70;1.00
26164;DHT22;13914;48.178;11.716;2023-07-22T14:23:14;27.60;1.00
26164;DHT22;13914;48.178;11.716;2023-07-22T14:25:40;27.70;1.00
26164;DHT22;13914;48.178;11.716;2023-07-22T14:28:05;27.60;1.00
26164;DHT22;13914;48.178;11.716;2023-07-22T14:30:31;27.60;1.00
26164;DHT22;13914;48.178;11.716;2023-07-22T14:32:57;27.60;1.00
26164;DHT22;13914;48.178;11.716;2023-07-22T14:35:23;27.60;1.00
26164;DHT22;13914;48.178;11.716;2023-07-22T14:37:49;27.60;1.00
26164;DHT22;13914;48.178;11.716;2023-07-22T14:40:15;27.60;1.00
26164;DHT22;13914;48.178;11.716;2023-07-22T14:42:41;27.60;1.00
26164;DHT22;13914;48.178;11.716;2023-07-22T14:45:06;27.60;1.00
26164;DHT22;13914;48.178;11.716;2023-07-22T14:47:32;27.60;1.00
26164;DHT22;13914;48.178;11.716;2023-07-22T14:49:58;27.60;1.00
26164;DHT22;13914;48.178;11.716;2023-07-22T14:52:24;27.60;1.00
26164;DHT22;13914;48.178;11.716;2023-07-22T14:54:49;27.60;1.00
26164;DHT22;13914;48.178;11.716;2023-07-22T14:57:16;27.60;1.00
26164;DHT22;13914;48.178;11.716;2023-07-22T14:59:42;27.50;1.00
26164;DHT22;13914;48.178;11.716;2023-07-22T15:02:08;27.50;1.00
26164;DHT22;13914;48.178;11.716;2023-07-22T15:04:33;27.50;1.00
26164;DHT22;13914;48.178;11.716;2023-07-22T15:07:00;27.50;1.00
26164;DHT22;13914;48.178;11.716;2023-07-22T15:09:26;27.40;1.00
26164;DHT22;13914;48.178;11.716;2023-07-22T15:11:52;27.40;1.00
26164;DHT22;13914;48.178;11.716;2023-07-22T15:14:18;27.40;1.00
26164;DHT22;13914;48.178;11.716;2023-07-22T15:16:43;27.40;1.00
26164;DHT22;13914;48.178;11.716;2023-07-22T15:19:09;27.40;1.00
26164;DHT22;13914;48.178;11.716;2023-07-22T15:21:35;27.40;1.00
26164;DHT22;13914;48.178;11.716;2023-07-22T15:24:01;27.30;1.00
26164;DHT22;13914;48.178;11.716;2023-07-22T15:26:26;27.30;1.00
26164;DHT22;13914;48.178;11.716;2023-07-22T15:28:52;27.30;1.00
26164;DHT22;13914;48.178;11.716;2023-07-22T15:31:18;27.30;1.00
26164;DHT22;13914;48.178;11.716;2023-07-22T15:33:45;27.20;1.00
26164;DHT22;13914;48.178;11.716;2023-07-22T15:36:11;27.20;1.00
26164;DHT22;13914;48.178;11.716;2023-07-22T15:38:36;27.20;1.00
26164;DHT22;13914;48.178;11.716;2023-07-22T15:41:02;27.20;1.00